Time;durP1;ratioP1;P1;durP2;ratioP2;P2;SDS_P1;SDS_P2;PMS_P1;PMS_P2;Temp;Humidity;BMP_temperature;BMP_pressure;BME280_temperature;BME280_humidity;BME280_pressure;Samples;Min_cycle;Max_cycle;Signal;HPM_P1;HPM_P2
2021/01/20 00:02:12;;;;;;;1.38;1.27;;;12.20;85.20;;;;;;5065932;28;20036;-75
2021/01/20 00:04:38;;;;;;;1.50;1.30;;;12.10;85.10;;;;;;5064617;28;20645;-76
2021/01/20 00:07:04;;;;;;;1.60;1.20;;;12.20;85.20;;;;;;5063852;28;20233;-75
2021/01/20 00:09:30;;;;;;;2.03;1.15;;;12.20;85.20;;;;;;5063287;28;20116;-74
2021/01/20 00:11:56;;;;;;;1.15;1.08;;;12.20;85.20;;;;;;5065113;28;20350;-74
2021/01/20 00:14:22;;;;;;;2.80;1.50;;;12.20;85.20;;;;;;5063249;28;20032;-74
2021/01/20 00:16:48;;;;;;;5.53;1.45;;;12.20;85.70;;;;;;5065252;28;20035;-73
2021/01/20 00:19:14;;;;;;;3.05;1.10;;;12.20;85.20;;;;;;5065655;28;20043;-74
2021/01/20 00:21:40;;;;;;;1.23;1.10;;;12.20;85.20;;;;;;5065813;28;20048;-74
2021/01/20 00:24:06;;;;;;;1.25;1.15;;;12.20;85.20;;;;;;5063986;28;20074;-74
2021/01/20 00:26:33;;;;;;;3.65;1.40;;;12.20;85.20;;;;;;5065238;28;20067;-75
2021/01/20 00:28:59;;;;;;;1.38;1.10;;;12.20;85.20;;;;;;5064859;28;20068;-74
2021/01/20 00:31:25;;;;;;;1.77;1.30;;;12.20;85.20;;;;;;5051301;28;20025;-74
2021/01/20 00:33:51;;;;;;;0.95;0.90;;;12.20;85.20;;;;;;5046263;28;20032;-75
2021/01/20 00:36:17;;;;;;;0.98;0.90;;;12.20;85.20;;;;;;5063521;28;20547;-75
2021/01/20 00:38:43;;;;;;;1.30;1.20;;;12.10;85.10;;;;;;5065358;28;20029;-75
2021/01/20 00:41:09;;;;;;;2.58;1.35;;;12.20;85.20;;;;;;5046454;28;20438;-74
2021/01/20 00:43:35;;;;;;;0.90;0.90;;;12.20;85.30;;;;;;5063199;28;20086;-75
2021/01/20 00:46:01;;;;;;;1.38;1.10;;;12.20;85.20;;;;;;5064738;28;20028;-75
2021/01/20 00:48:27;;;;;;;1.13;1.02;;;12.20;85.30;;;;;;5064808;28;20571;-75
2021/01/20 00:50:57;;;;;;;1.30;1.20;;;12.20;85.30;;;;;;5063363;28;20056;-75
2021/01/20 00:53:24;;;;;;;2.42;1.10;;;12.20;85.30;;;;;;5047255;28;20024;-75
2021/01/20 00:55:50;;;;;;;1.15;1.05;;;12.20;85.30;;;;;;5063123;28;20459;-74
2021/01/20 00:58:17;;;;;;;1.00;1.00;;;12.20;85.30;;;;;;5062653;28;20052;-74
2021/01/20 01:00:43;;;;;;;1.00;0.95;;;12.20;85.30;;;;;;5046139;28;20070;-74
2021/01/20 01:03:10;;;;;;;1.55;1.45;;;12.20;85.30;;;;;;5045994;28;20052;-74
2021/01/20 01:05:37;;;;;;;1.10;1.00;;;12.20;85.30;;;;;;5063928;28;20028;-74
2021/01/20 01:08:05;;;;;;;2.35;1.00;;;12.20;85.30;;;;;;5046477;28;20039;-74
2021/01/20 01:10:38;;;;;;;1.20;1.10;;;12.20;85.80;;;;;;5063040;28;20029;-74
2021/01/20 01:13:14;;;;;;;0.90;0.90;;;12.20;85.20;;;;;;5062651;28;20031;-74
2021/01/20 01:15:49;;;;;;;0.90;0.90;;;12.20;85.30;;;;;;5062580;28;20044;-73
2021/01/20 01:18:18;;;;;;;2.50;1.15;;;12.20;85.20;;;;;;5060202;28;20040;-74
2021/01/20 01:20:44;;;;;;;2.35;1.27;;;12.20;85.30;;;;;;5026925;28;20089;-74
2021/01/20 01:23:10;;;;;;;1.25;1.10;;;12.20;85.20;;;;;;5026351;28;20049;-74
2021/01/20 01:25:37;;;;;;;1.88;1.50;;;12.20;85.30;;;;;;5060246;28;20192;-74
2021/01/20 01:28:11;;;;;;;1.52;1.00;;;12.20;85.30;;;;;;5062675;28;20533;-74
2021/01/20 01:30:39;;;;;;;1.20;1.00;;;12.20;85.30;;;;;;5055597;28;20025;-73
2021/01/20 01:33:07;;;;;;;0.88;0.88;;;12.20;85.30;;;;;;5043008;28;20445;-74
2021/01/20 01:35:37;;;;;;;1.02;0.90;;;12.20;85.30;;;;;;5060198;28;20151;-74
2021/01/20 01:38:05;;;;;;;1.20;1.10;;;12.20;85.30;;;;;;5063208;28;20169;-76
2021/01/20 01:40:57;;;;;;;1.15;1.05;;;12.20;85.30;;;;;;5060808;28;20040;-74
2021/01/20 01:43:32;;;;;;;1.13;1.00;;;12.20;85.30;;;;;;5062313;28;20504;-74
2021/01/20 01:46:30;;;;;;;1.25;1.02;;;12.20;85.30;;;;;;5060121;28;20472;-74
2021/01/20 01:49:10;;;;;;;6.13;1.10;;;12.20;85.30;;;;;;5047834;28;20032;-74
2021/01/20 01:51:36;;;;;;;1.30;1.10;;;12.20;85.30;;;;;;5062746;28;20042;-74
2021/01/20 01:54:21;;;;;;;0.73;0.73;;;12.20;85.30;;;;;;5064127;28;20033;-74
2021/01/20 01:56:47;;;;;;;1.35;0.98;;;12.20;85.30;;;;;;5062837;28;20131;-74
2021/01/20 01:59:15;;;;;;;0.80;0.80;;;12.20;85.30;;;;;;5062506;28;20051;-74
2021/01/20 02:01:44;;;;;;;0.80;0.80;;;12.20;85.30;;;;;;5062197;28;20078;-74
2021/01/20 02:04:14;;;;;;;2.05;1.10;;;12.20;85.30;;;;;;5045949;28;20039;-74
2021/01/20 02:06:45;;;;;;;1.10;1.00;;;12.20;85.30;;;;;;5062464;28;20064;-75
2021/01/20 02:09:26;;;;;;;1.10;1.00;;;12.20;85.30;;;;;;5047182;28;20025;-75
2021/01/20 02:12:34;;;;;;;1.60;0.90;;;12.20;85.30;;;;;;5061945;28;20040;-74
2021/01/20 02:15:19;;;;;;;0.90;0.90;;;12.20;85.30;;;;;;5066145;28;20024;-75
2021/01/20 02:18:01;;;;;;;1.00;1.00;;;12.20;85.30;;;;;;5065951;28;20032;-75
2021/01/20 02:21:05;;;;;;;2.33;1.30;;;12.20;85.30;;;;;;5042172;28;20099;-75
2021/01/20 02:23:33;;;;;;;1.77;0.85;;;12.20;85.30;;;;;;5045916;28;20475;-75
2021/01/20 02:26:44;;;;;;;1.90;1.00;;;12.20;85.30;;;;;;5046277;28;20071;-74
2021/01/20 02:29:35;;;;;;;1.48;0.80;;;12.20;85.30;;;;;;5045639;28;20063;-75
2021/01/20 02:32:21;;;;;;;1.27;1.00;;;12.20;85.30;;;;;;5059478;28;20043;-75
2021/01/20 02:34:51;;;;;;;2.17;1.05;;;12.20;85.30;;;;;;5063729;28;20138;-74
2021/01/20 02:37:17;;;;;;;0.80;0.80;;;12.20;85.30;;;;;;5030732;28;20029;-75
2021/01/20 02:40:11;;;;;;;1.38;1.17;;;12.20;85.30;;;;;;5046871;28;20076;-75
2021/01/20 02:42:54;;;;;;;3.65;1.10;;;12.20;85.40;;;;;;5032530;28;20480;-74
2021/01/20 02:45:27;;;;;;;0.85;0.85;;;12.20;85.40;;;;;;5049578;28;20896;-74
2021/01/20 02:47:56;;;;;;;2.67;0.90;;;12.20;85.40;;;;;;5065996;28;20460;-76
2021/01/20 02:50:23;;;;;;;1.23;1.10;;;12.20;85.40;;;;;;5071574;28;20021;-75
2021/01/20 02:53:05;;;;;;;1.13;1.00;;;12.20;85.40;;;;;;5070214;28;20040;-75
2021/01/20 02:56:00;;;;;;;0.85;0.85;;;12.20;85.40;;;;;;5057740;28;20111;-74
2021/01/20 02:58:46;;;;;;;;;;;12.20;85.40;;;;;;5051957;28;20098;-76
2021/01/20 03:01:21;;;;;;;0.70;0.70;;;12.20;85.40;;;;;;5050975;28;19908;-75
2021/01/20 03:03:51;;;;;;;1.15;1.00;;;12.20;85.30;;;;;;5059708;28;20115;-75
2021/01/20 03:06:17;;;;;;;1.48;1.10;;;12.20;85.30;;;;;;5071222;28;20460;-74
2021/01/20 03:08:45;;;;;;;1.95;0.90;;;12.20;85.30;;;;;;5069834;28;20128;-76
2021/01/20 03:11:11;;;;;;;1.60;1.10;;;12.20;85.30;;;;;;5071036;28;20244;-74
2021/01/20 03:13:39;;;;;;;1.08;0.98;;;12.20;85.40;;;;;;5070754;28;20421;-75
2021/01/20 03:16:06;;;;;;;0.80;0.80;;;12.20;85.40;;;;;;5070074;28;20031;-74
2021/01/20 03:18:32;;;;;;;1.13;1.00;;;12.20;85.40;;;;;;5069252;28;20085;-73
2021/01/20 03:20:58;;;;;;;0.90;0.90;;;12.20;85.40;;;;;;5061130;28;20024;-74
2021/01/20 03:23:24;;;;;;;0.68;0.68;;;12.20;85.40;;;;;;5050891;28;20136;-75
2021/01/20 03:25:50;;;;;;;1.45;1.02;;;12.20;85.50;;;;;;5051036;28;20526;-74
2021/01/20 03:28:16;;;;;;;2.17;1.08;;;12.20;85.40;;;;;;5050907;28;20545;-75
2021/01/20 03:30:41;;;;;;;0.68;0.68;;;12.20;85.40;;;;;;5051059;28;20037;-74
2021/01/20 03:33:08;;;;;;;0.82;0.70;;;12.20;85.40;;;;;;5050764;28;20151;-75
2021/01/20 03:35:36;;;;;;;1.40;0.90;;;12.20;85.50;;;;;;5050937;28;20021;-74
2021/01/20 03:38:03;;;;;;;1.73;1.00;;;12.10;85.20;;;;;;5050983;28;20033;-73
2021/01/20 03:40:29;;;;;;;1.15;0.95;;;12.20;85.50;;;;;;5050713;28;20124;-75
2021/01/20 03:42:55;;;;;;;0.75;0.75;;;12.20;85.40;;;;;;5049132;28;20461;-76
2021/01/20 03:45:21;;;;;;;2.15;0.82;;;12.20;85.50;;;;;;5050464;28;20094;-75
2021/01/20 03:47:47;;;;;;;0.70;0.70;;;12.20;85.50;;;;;;5050275;28;20049;-75
2021/01/20 03:50:13;;;;;;;1.13;0.93;;;12.20;85.50;;;;;;5050771;28;20028;-74
2021/01/20 03:52:39;;;;;;;1.48;0.95;;;12.20;85.50;;;;;;5050764;28;20294;-74
2021/01/20 03:55:05;;;;;;;0.70;0.70;;;12.20;85.50;;;;;;5059927;28;20047;-74
2021/01/20 03:57:31;;;;;;;0.70;0.70;;;12.20;85.50;;;;;;5070690;28;20035;-75
2021/01/20 03:59:57;;;;;;;0.93;0.90;;;12.20;85.50;;;;;;5070175;28;20051;-75
2021/01/20 04:02:23;;;;;;;0.82;0.77;;;12.20;85.50;;;;;;5068925;28;20044;-75
2021/01/20 04:05:00;;;;;;;0.70;0.70;;;12.20;85.50;;;;;;5069001;28;20112;-74
2021/01/20 04:07:26;;;;;;;1.10;1.00;;;12.20;85.50;;;;;;5070560;28;20116;-75
2021/01/20 04:09:52;;;;;;;0.98;0.80;;;12.20;85.50;;;;;;5068752;28;20476;-75
2021/01/20 04:12:18;;;;;;;1.13;1.00;;;12.20;85.50;;;;;;5068980;28;20029;-76
2021/01/20 04:14:44;;;;;;;0.90;0.90;;;12.20;85.50;;;;;;5068618;28;20244;-75
2021/01/20 04:17:10;;;;;;;0.75;0.75;;;12.20;85.50;;;;;;5069772;28;20032;-75
2021/01/20 04:19:36;;;;;;;1.30;1.20;;;12.20;85.50;;;;;;5068851;28;20047;-76
2021/01/20 04:22:02;;;;;;;0.70;0.70;;;12.20;85.50;;;;;;5069881;28;20063;-76
2021/01/20 04:24:27;;;;;;;0.85;0.80;;;12.20;85.50;;;;;;5069841;28;20420;-75
2021/01/20 04:26:53;;;;;;;0.80;0.80;;;12.20;85.50;;;;;;5052110;28;20037;-76
2021/01/20 04:29:19;;;;;;;0.80;0.80;;;12.20;85.50;;;;;;5069208;28;20035;-74
2021/01/20 04:31:45;;;;;;;0.75;0.75;;;12.20;85.50;;;;;;5068632;28;20016;-76
2021/01/20 04:34:11;;;;;;;0.93;0.82;;;12.20;85.50;;;;;;5068055;28;20028;-77
2021/01/20 04:36:37;;;;;;;1.48;1.08;;;12.20;85.50;;;;;;5068006;28;20077;-75
2021/01/20 04:39:03;;;;;;;1.23;0.90;;;12.20;85.50;;;;;;5069641;28;20492;-75
2021/01/20 04:41:29;;;;;;;2.20;0.98;;;12.20;85.50;;;;;;5068029;28;20040;-75
2021/01/20 04:43:55;;;;;;;1.65;1.00;;;12.20;85.50;;;;;;5069995;28;20377;-76
2021/01/20 04:46:23;;;;;;;0.70;0.70;;;12.20;85.50;;;;;;5067693;28;20040;-75
2021/01/20 04:48:49;;;;;;;1.00;0.90;;;12.20;85.50;;;;;;5069849;28;20432;-74
2021/01/20 04:51:18;;;;;;;1.63;0.90;;;12.20;85.50;;;;;;5067808;28;20074;-75
2021/01/20 04:53:46;;;;;;;3.38;1.23;;;12.20;85.50;;;;;;5069738;28;20064;-76
2021/01/20 04:56:13;;;;;;;1.75;1.10;;;12.20;85.50;;;;;;5049900;28;20033;-75
2021/01/20 04:58:40;;;;;;;1.92;0.98;;;12.20;85.50;;;;;;5048008;28;20098;-75
2021/01/20 05:01:06;;;;;;;1.20;1.02;;;12.20;85.50;;;;;;5047919;28;20067;-75
2021/01/20 05:03:32;;;;;;;1.20;1.00;;;12.20;85.50;;;;;;5062171;28;20327;-80
2021/01/20 05:05:58;;;;;;;1.55;0.93;;;12.20;85.50;;;;;;5069083;28;20028;-74
2021/01/20 05:08:24;;;;;;;0.82;0.82;;;12.20;85.50;;;;;;5068125;28;20475;-75
2021/01/20 05:10:50;;;;;;;0.85;0.80;;;12.20;85.50;;;;;;5069511;28;20032;-74
2021/01/20 05:13:44;;;;;;;1.25;0.80;;;12.20;85.50;;;;;;5067584;28;20020;-74
2021/01/20 05:16:25;;;;;;;0.80;0.80;;;12.20;85.50;;;;;;5049045;28;20070;-75
2021/01/20 05:18:50;;;;;;;2.65;1.00;;;12.20;85.50;;;;;;5068954;28;20029;-73
2021/01/20 05:21:17;;;;;;;4.75;1.08;;;12.20;85.50;;;;;;5051486;28;20342;-76
2021/01/20 05:23:43;;;;;;;2.20;0.98;;;12.20;85.50;;;;;;5068168;28;20055;-74
2021/01/20 05:26:09;;;;;;;1.40;0.98;;;12.20;85.50;;;;;;5067541;28;20044;-75
2021/01/20 05:28:36;;;;;;;0.88;0.88;;;12.20;85.50;;;;;;5067569;28;20105;-76
2021/01/20 05:31:04;;;;;;;1.60;0.95;;;12.20;85.50;;;;;;5067824;28;20036;-75
2021/01/20 05:33:39;;;;;;;0.80;0.80;;;12.20;85.50;;;;;;5051105;28;20055;-74
2021/01/20 05:36:14;;;;;;;1.42;1.08;;;12.20;85.50;;;;;;5062455;28;20033;-75
2021/01/20 05:38:46;;;;;;;1.88;1.08;;;12.20;85.50;;;;;;5057806;28;20033;-75
2021/01/20 05:41:18;;;;;;;1.10;1.00;;;12.20;85.50;;;;;;5032433;28;20036;-74
2021/01/20 05:43:44;;;;;;;1.27;1.10;;;12.20;85.50;;;;;;5058860;28;20029;-74
2021/01/20 05:46:10;;;;;;;2.67;1.08;;;12.30;85.70;;;;;;5055823;28;20201;-74
2021/01/20 05:48:46;;;;;;;2.60;1.20;;;12.20;85.50;;;;;;5049089;28;20033;-75
2021/01/20 05:51:12;;;;;;;1.08;0.98;;;12.20;85.50;;;;;;5069693;28;20032;-74
2021/01/20 05:53:57;;;;;;;2.17;1.25;;;12.20;85.50;;;;;;5050636;28;20021;-74
2021/01/20 05:56:30;;;;;;;2.42;1.27;;;12.20;85.50;;;;;;5064028;28;20786;-75
2021/01/20 05:58:58;;;;;;;1.13;1.02;;;12.20;85.50;;;;;;5058687;28;20123;-74
2021/01/20 06:01:25;;;;;;;1.55;1.23;;;12.20;85.40;;;;;;5051482;28;20056;-75
2021/01/20 06:03:52;;;;;;;1.55;1.10;;;12.30;85.60;;;;;;5038278;28;20130;-74
2021/01/20 06:06:19;;;;;;;1.95;1.05;;;12.20;85.50;;;;;;5061968;28;20614;-74
2021/01/20 06:08:46;;;;;;;1.35;1.15;;;12.20;85.50;;;;;;5061950;28;20033;-75
2021/01/20 06:11:13;;;;;;;2.15;0.93;;;12.20;85.50;;;;;;5045580;28;20024;-74
2021/01/20 06:13:40;;;;;;;1.48;1.13;;;12.20;85.50;;;;;;5060386;28;20263;-76
2021/01/20 06:16:14;;;;;;;3.40;1.65;;;12.20;85.50;;;;;;5045759;28;20527;-74
2021/01/20 06:18:47;;;;;;;3.13;1.10;;;12.20;85.50;;;;;;5057485;28;20387;-76
2021/01/20 06:21:18;;;;;;;5.47;1.80;;;12.20;85.50;;;;;;5065607;28;20044;-77
2021/01/20 06:23:54;;;;;;;1.25;1.13;;;12.30;85.70;;;;;;5065620;28;20445;-75
2021/01/20 06:26:24;;;;;;;1.40;1.20;;;12.30;85.70;;;;;;5060048;28;20032;-75
2021/01/20 06:28:54;;;;;;;1.27;1.15;;;12.30;85.70;;;;;;5055068;28;20254;-76
2021/01/20 06:31:21;;;;;;;1.95;1.30;;;12.20;85.50;;;;;;5063584;28;20024;-76
2021/01/20 06:33:47;;;;;;;1.45;1.10;;;12.30;85.70;;;;;;5050224;28;20043;-76
2021/01/20 06:36:31;;;;;;;2.63;1.20;;;12.30;85.70;;;;;;5032343;28;20017;-75
2021/01/20 06:38:57;;;;;;;1.20;1.10;;;12.30;85.80;;;;;;5058335;28;20044;-78
2021/01/20 06:41:37;;;;;;;1.55;1.20;;;12.30;85.70;;;;;;5061430;28;20029;-74
2021/01/20 06:44:22;;;;;;;2.63;1.50;;;12.30;85.80;;;;;;5064676;28;20105;-75
2021/01/20 06:46:57;;;;;;;2.40;1.63;;;12.30;85.80;;;;;;5066312;28;20037;-74
2021/01/20 06:49:28;;;;;;;3.40;1.45;;;12.30;85.70;;;;;;5031287;28;20120;-75
2021/01/20 06:52:14;;;;;;;2.92;1.50;;;12.30;85.70;;;;;;5045714;28;20451;-74
2021/01/20 06:54:45;;;;;;;1.58;1.40;;;12.30;85.80;;;;;;5028367;28;20029;-73
2021/01/20 06:57:26;;;;;;;2.95;1.88;;;12.30;85.80;;;;;;5027795;28;20451;-77
2021/01/20 07:00:07;;;;;;;2.97;2.40;;;12.30;85.90;;;;;;5045638;28;20472;-76
2021/01/20 07:02:37;;;;;;;3.45;2.08;;;12.30;85.90;;;;;;5044812;28;20505;-75
2021/01/20 07:05:05;;;;;;;3.67;2.05;;;12.40;86.10;;;;;;5050698;28;20036;-75
2021/01/20 07:07:50;;;;;;;4.35;2.17;;;12.40;86.10;;;;;;5049352;28;20177;-77
2021/01/20 07:10:17;;;;;;;5.53;2.55;;;12.40;86.10;;;;;;5053233;28;20190;-79
2021/01/20 07:13:17;;;;;;;8.68;2.53;;;12.40;86.10;;;;;;5044300;28;20017;-78
2021/01/20 07:15:47;;;;;;;5.85;2.92;;;12.40;86.10;;;;;;5045592;28;20021;-79
2021/01/20 07:18:15;;;;;;;4.00;2.63;;;12.40;86.00;;;;;;5053869;28;20131;-79
2021/01/20 07:20:42;;;;;;;5.72;2.63;;;12.40;86.10;;;;;;5064484;28;20436;-79
2021/01/20 07:23:09;;;;;;;4.78;2.60;;;12.30;85.90;;;;;;5052629;28;20515;-78
2021/01/20 07:25:35;;;;;;;5.38;2.45;;;12.30;85.90;;;;;;5045655;28;20043;-78
2021/01/20 07:28:01;;;;;;;3.70;2.50;;;12.30;85.90;;;;;;5049203;28;20501;-78
2021/01/20 07:30:28;;;;;;;3.08;2.58;;;12.30;86.00;;;;;;5059185;28;20078;-78
2021/01/20 07:32:54;;;;;;;6.78;3.08;;;12.30;86.00;;;;;;5057577;28;20028;-79
2021/01/20 07:35:26;;;;;;;4.20;2.42;;;12.30;86.00;;;;;;5065344;28;20176;-78
2021/01/20 07:38:04;;;;;;;3.08;2.75;;;12.30;86.60;;;;;;5061535;28;20040;-77
2021/01/20 07:40:31;;;;;;;3.10;2.42;;;12.30;86.00;;;;;;5045996;28;20083;-77
2021/01/20 07:42:58;;;;;;;6.70;2.60;;;12.30;86.00;;;;;;5044215;28;20064;-77
2021/01/20 07:45:39;;;;;;;3.22;2.50;;;12.30;86.00;;;;;;5044348;28;20090;-77
2021/01/20 07:48:07;;;;;;;3.95;2.47;;;12.20;85.90;;;;;;5044911;28;20052;-77
2021/01/20 07:50:48;;;;;;;6.40;2.83;;;12.20;85.80;;;;;;5045278;28;20089;-78
2021/01/20 07:53:16;;;;;;;3.92;2.40;;;12.20;85.90;;;;;;5045284;28;20496;-77
2021/01/20 07:55:43;;;;;;;4.70;2.90;;;12.20;85.90;;;;;;5045251;28;20128;-77
2021/01/20 07:58:09;;;;;;;2.95;2.50;;;12.20;85.90;;;;;;5045406;28;20025;-77
2021/01/20 08:00:48;;;;;;;3.78;2.28;;;12.20;85.80;;;;;;5045251;28;20032;-77
2021/01/20 08:03:15;;;;;;;3.28;2.22;;;12.20;85.90;;;;;;5045601;28;20110;-78
2021/01/20 08:05:42;;;;;;;4.30;2.13;;;12.20;85.80;;;;;;5044115;28;20507;-77
2021/01/20 08:08:10;;;;;;;3.13;2.70;;;12.20;85.80;;;;;;5044846;28;20071;-77
2021/01/20 08:10:36;;;;;;;4.60;2.67;;;12.20;85.90;;;;;;5043161;28;20024;-77
2021/01/20 08:13:04;;;;;;;2.75;2.47;;;12.20;85.90;;;;;;5045041;28;20474;-77
2021/01/20 08:15:37;;;;;;;5.00;2.72;;;12.10;85.70;;;;;;5045687;28;20036;-76
2021/01/20 08:18:03;;;;;;;3.30;2.85;;;12.10;85.70;;;;;;5044344;28;20064;-76
2021/01/20 08:20:34;;;;;;;5.80;2.40;;;12.10;85.70;;;;;;5043831;28;20031;-77
2021/01/20 08:23:02;;;;;;;4.63;2.72;;;12.10;85.70;;;;;;5051635;28;20119;-77
2021/01/20 08:25:28;;;;;;;4.85;2.47;;;12.10;86.20;;;;;;5064909;28;20158;-77
2021/01/20 08:27:54;;;;;;;2.58;2.10;;;12.10;85.70;;;;;;5059035;28;20357;-77
2021/01/20 08:30:34;;;;;;;3.50;2.80;;;12.10;85.70;;;;;;5043352;28;20029;-78
2021/01/20 08:33:01;;;;;;;4.05;2.72;;;12.10;85.80;;;;;;5026867;28;20032;-78
2021/01/20 08:35:32;;;;;;;4.00;3.15;;;12.10;85.70;;;;;;5043896;28;20471;-76
2021/01/20 08:37:59;;;;;;;4.70;2.80;;;12.10;85.80;;;;;;5044872;28;20040;-76
2021/01/20 08:40:26;;;;;;;6.50;3.22;;;12.10;85.80;;;;;;5044924;28;20433;-77
2021/01/20 08:42:52;;;;;;;4.78;3.45;;;12.10;85.80;;;;;;5044257;28;20084;-76
2021/01/20 08:45:20;;;;;;;4.78;2.90;;;12.10;85.80;;;;;;5045431;28;20055;-75
2021/01/20 08:47:49;;;;;;;5.05;3.25;;;12.10;85.80;;;;;;5042793;28;20061;-76
2021/01/20 08:50:17;;;;;;;5.18;3.22;;;12.10;85.80;;;;;;5027432;28;20040;-75
2021/01/20 08:52:54;;;;;;;5.15;3.60;;;12.10;85.80;;;;;;5026856;28;20112;-77
2021/01/20 08:55:30;;;;;;;5.53;3.53;;;12.10;85.90;;;;;;5055057;28;20483;-77
2021/01/20 08:58:18;;;;;;;5.00;3.10;;;12.10;85.80;;;;;;5046528;28;20090;-78
2021/01/20 09:00:46;;;;;;;3.78;2.75;;;12.10;85.90;;;;;;5046543;28;20031;-77
2021/01/20 09:03:21;;;;;;;3.13;2.83;;;12.10;85.80;;;;;;5062796;28;20190;-78
2021/01/20 09:05:48;;;;;;;8.25;3.58;;;12.10;85.80;;;;;;5063103;28;20033;-78
2021/01/20 09:08:15;;;;;;;5.68;3.75;;;12.10;85.80;;;;;;5055904;28;20032;-77
2021/01/20 09:10:42;;;;;;;6.22;3.22;;;12.10;85.80;;;;;;5043527;28;20112;-77
2021/01/20 09:13:09;;;;;;;9.55;3.55;;;12.10;85.80;;;;;;5035125;28;20035;-77
2021/01/20 09:15:35;;;;;;;6.85;3.97;;;12.20;86.00;;;;;;5063045;28;20101;-78
2021/01/20 09:18:01;;;;;;;7.05;3.58;;;12.10;85.80;;;;;;5057149;28;20139;-79
2021/01/20 09:20:26;;;;;;;8.15;4.25;;;12.10;85.80;;;;;;5042753;28;20105;-76
2021/01/20 09:22:52;;;;;;;6.25;4.15;;;12.10;85.80;;;;;;5051654;28;20048;-78
2021/01/20 09:25:18;;;;;;;7.97;4.63;;;12.10;85.80;;;;;;5062727;28;20025;-77
2021/01/20 09:27:45;;;;;;;7.43;4.07;;;12.10;85.90;;;;;;5062351;28;20068;-78
2021/01/20 09:30:12;;;;;;;8.00;5.13;;;12.20;86.10;;;;;;5062925;28;20364;-79
2021/01/20 09:32:39;;;;;;;7.78;5.00;;;12.10;85.90;;;;;;5062711;28;20083;-78
2021/01/20 09:35:15;;;;;;;7.65;5.05;;;12.10;85.90;;;;;;5064505;28;20465;-78
2021/01/20 09:37:43;;;;;;;10.60;5.53;;;12.10;85.90;;;;;;5045690;28;20136;-76
2021/01/20 09:40:15;;;;;;;9.80;6.22;;;12.10;85.90;;;;;;5063200;28;20051;-77
2021/01/20 09:42:44;;;;;;;11.50;6.28;;;12.10;85.80;;;;;;5062351;28;20584;-77
2021/01/20 09:45:12;;;;;;;12.90;6.90;;;12.10;85.80;;;;;;5063999;28;20553;-78
2021/01/20 09:47:40;;;;;;;12.13;6.30;;;12.10;85.80;;;;;;5045568;28;20125;-77
2021/01/20 09:50:10;;;;;;;13.80;7.40;;;12.10;85.70;;;;;;5061972;28;20127;-78
2021/01/20 09:52:36;;;;;;;13.63;6.90;;;12.10;85.70;;;;;;5062743;28;20259;-78
2021/01/20 09:55:04;;;;;;;11.80;7.32;;;12.20;85.90;;;;;;5048615;28;20108;-78
2021/01/20 09:57:30;;;;;;;11.18;7.00;;;12.10;85.70;;;;;;5059290;28;20092;-78
2021/01/20 09:59:56;;;;;;;10.32;6.45;;;12.10;85.60;;;;;;5044426;28;20056;-77
2021/01/20 10:02:22;;;;;;;11.05;6.22;;;12.10;85.60;;;;;;5043650;28;20131;-78
2021/01/20 10:04:48;;;;;;;9.00;6.40;;;12.10;85.60;;;;;;5044241;28;20100;-78
2021/01/20 10:07:14;;;;;;;8.45;5.20;;;12.10;85.60;;;;;;5044175;28;20456;-77
2021/01/20 10:09:41;;;;;;;7.30;5.47;;;12.10;85.60;;;;;;5043140;28;20033;-77
2021/01/20 10:12:12;;;;;;;7.03;5.57;;;12.10;85.50;;;;;;5044054;28;20460;-77
2021/01/20 10:14:38;;;;;;;9.05;5.85;;;12.10;85.50;;;;;;5042140;28;20053;-77
2021/01/20 10:17:04;;;;;;;10.98;4.93;;;12.10;85.50;;;;;;5044317;28;20037;-77
2021/01/20 10:19:30;;;;;;;9.38;5.45;;;12.10;85.50;;;;;;5043188;28;20687;-77
2021/01/20 10:21:57;;;;;;;7.95;4.65;;;12.10;85.40;;;;;;5025637;28;20033;-76
2021/01/20 10:24:23;;;;;;;7.72;5.15;;;12.10;85.40;;;;;;5025290;28;20037;-78
2021/01/20 10:26:49;;;;;;;12.00;4.82;;;12.10;85.30;;;;;;5043125;28;20508;-77
2021/01/20 10:29:15;;;;;;;10.40;4.28;;;12.10;85.30;;;;;;5043784;28;20068;-76
2021/01/20 10:31:42;;;;;;;6.80;4.03;;;12.10;85.20;;;;;;5044287;28;20047;-76
2021/01/20 10:34:11;;;;;;;8.93;4.60;;;12.20;85.40;;;;;;5044367;28;20029;-74
2021/01/20 10:36:38;;;;;;;7.30;4.88;;;12.20;85.50;;;;;;5046738;28;20431;-74
2021/01/20 10:39:08;;;;;;;8.73;5.93;;;12.20;85.70;;;;;;5047033;28;20052;-75
2021/01/20 10:41:35;;;;;;;5.90;4.55;;;12.20;85.70;;;;;;5046552;28;20033;-74
2021/01/20 10:44:00;;;;;;;7.05;4.20;;;12.30;85.90;;;;;;5047471;28;20040;-76
2021/01/20 10:46:27;;;;;;;7.15;4.38;;;12.30;85.90;;;;;;5045230;28;20233;-75
2021/01/20 10:48:54;;;;;;;7.55;4.68;;;12.40;86.00;;;;;;5044861;28;20495;-74
2021/01/20 10:51:21;;;;;;;9.30;4.57;;;12.40;86.00;;;;;;5046559;28;20451;-74
2021/01/20 10:53:47;;;;;;;5.35;4.30;;;12.50;86.20;;;;;;5044750;28;20025;-75
2021/01/20 10:56:13;;;;;;;5.28;4.35;;;12.50;86.10;;;;;;5065255;28;20032;-74
2021/01/20 10:58:39;;;;;;;6.65;4.60;;;12.50;86.00;;;;;;5055497;28;20449;-74
2021/01/20 11:01:06;;;;;;;7.38;4.60;;;12.50;86.00;;;;;;5046522;28;20056;-74
2021/01/20 11:03:32;;;;;;;5.45;4.05;;;12.50;86.00;;;;;;5044772;28;20508;-75
2021/01/20 11:05:58;;;;;;;6.97;4.43;;;12.50;86.00;;;;;;5046585;28;20147;-75
2021/01/20 11:08:24;;;;;;;4.57;3.75;;;12.60;86.20;;;;;;5046433;28;20044;-75
2021/01/20 11:10:50;;;;;;;5.05;3.95;;;12.60;86.20;;;;;;5045832;28;20039;-75
2021/01/20 11:13:17;;;;;;;4.30;3.45;;;12.60;86.20;;;;;;5028345;28;20098;-76
2021/01/20 11:15:47;;;;;;;4.40;3.92;;;12.60;86.20;;;;;;5046372;28;20044;-73
2021/01/20 11:18:14;;;;;;;5.10;4.60;;;12.60;86.20;;;;;;5044433;28;20547;-76
2021/01/20 11:20:41;;;;;;;5.13;4.38;;;12.70;86.40;;;;;;5046266;28;20079;-76
2021/01/20 11:23:10;;;;;;;6.95;4.57;;;12.70;86.40;;;;;;5046099;28;20086;-75
2021/01/20 11:25:37;;;;;;;6.32;4.10;;;12.70;86.30;;;;;;5044851;28;20021;-74
2021/01/20 11:28:04;;;;;;;5.85;4.35;;;12.70;86.30;;;;;;5043673;28;20024;-74
2021/01/20 11:30:30;;;;;;;5.50;3.47;;;12.80;86.50;;;;;;5046893;28;20079;-74
2021/01/20 11:32:56;;;;;;;4.07;3.60;;;12.80;86.50;;;;;;5034794;28;20427;-74
2021/01/20 11:35:22;;;;;;;6.75;5.43;;;12.80;86.50;;;;;;5064623;28;20398;-74
2021/01/20 11:37:48;;;;;;;5.13;4.47;;;12.80;86.40;;;;;;5064549;28;20036;-74
2021/01/20 11:40:14;;;;;;;5.60;4.18;;;12.80;86.50;;;;;;5066016;28;20036;-74
2021/01/20 11:42:41;;;;;;;7.57;4.35;;;12.80;86.50;;;;;;5047377;28;20141;-74
2021/01/20 11:45:07;;;;;;;5.38;4.13;;;12.80;86.50;;;;;;5066010;28;20115;-74
2021/01/20 11:47:36;;;;;;;7.47;4.75;;;12.80;87.00;;;;;;5063930;28;20044;-74
2021/01/20 11:50:03;;;;;;;6.03;4.57;;;12.80;86.50;;;;;;5045728;28;20662;-74
2021/01/20 11:52:29;;;;;;;5.88;4.28;;;12.90;86.60;;;;;;5047218;28;20372;-74
2021/01/20 11:54:55;;;;;;;4.63;4.18;;;12.90;86.60;;;;;;5056772;28;20029;-74
2021/01/20 11:57:21;;;;;;;5.22;4.13;;;12.90;86.50;;;;;;5043968;28;20033;-74
2021/01/20 11:59:47;;;;;;;4.90;4.40;;;13.00;86.70;;;;;;5044269;28;20044;-74
2021/01/20 12:02:13;;;;;;;6.07;4.82;;;12.90;86.50;;;;;;5044786;28;20122;-74
2021/01/20 12:04:39;;;;;;;5.05;4.53;;;12.90;86.50;;;;;;5044743;28;20029;-74
2021/01/20 12:07:05;;;;;;;4.45;4.05;;;13.00;86.70;;;;;;5045497;28;20546;-74
2021/01/20 12:09:31;;;;;;;5.10;4.60;;;12.90;86.50;;;;;;5044185;28;20409;-74
2021/01/20 12:11:56;;;;;;;4.88;4.05;;;13.00;86.70;;;;;;5043246;28;20164;-74
2021/01/20 12:14:22;;;;;;;6.10;4.13;;;13.00;86.70;;;;;;5045150;28;20140;-74
2021/01/20 12:16:48;;;;;;;7.18;4.20;;;13.00;86.70;;;;;;5044575;28;20120;-75
2021/01/20 12:19:14;;;;;;;5.80;3.75;;;12.90;86.60;;;;;;5043933;28;20338;-75
2021/01/20 12:21:40;;;;;;;7.53;4.28;;;12.90;86.60;;;;;;5044184;28;20033;-75
2021/01/20 12:24:06;;;;;;;4.35;3.75;;;12.90;86.60;;;;;;5044573;28;20098;-75
2021/01/20 12:26:32;;;;;;;4.82;3.90;;;13.00;86.80;;;;;;5043233;28;20043;-74
2021/01/20 12:28:58;;;;;;;5.07;4.15;;;12.90;86.70;;;;;;5043788;28;20043;-74
2021/01/20 12:31:24;;;;;;;7.95;4.28;;;13.00;86.90;;;;;;5045588;28;20025;-75
2021/01/20 12:33:50;;;;;;;6.25;3.65;;;13.00;86.80;;;;;;5044553;28;20158;-74
2021/01/20 12:36:17;;;;;;;4.30;3.63;;;13.00;86.80;;;;;;5044004;28;20040;-74
2021/01/20 12:38:43;;;;;;;4.90;3.85;;;13.00;86.80;;;;;;5045087;28;20145;-74
2021/01/20 12:41:09;;;;;;;5.45;3.78;;;13.00;86.80;;;;;;5043852;28;20028;-75
2021/01/20 12:43:35;;;;;;;5.65;3.40;;;13.00;86.70;;;;;;5043700;28;20041;-75
2021/01/20 12:46:01;;;;;;;9.18;3.63;;;13.00;86.70;;;;;;5044826;28;20499;-75
2021/01/20 12:48:27;;;;;;;7.70;4.18;;;13.00;86.70;;;;;;5045028;28;20262;-74
2021/01/20 12:50:53;;;;;;;5.95;3.15;;;12.90;86.50;;;;;;5026908;28;20650;-74
2021/01/20 12:53:19;;;;;;;5.07;3.88;;;12.90;86.50;;;;;;5043779;28;20028;-75
2021/01/20 12:55:44;;;;;;;4.40;3.42;;;12.90;86.50;;;;;;5059745;28;20037;-74
2021/01/20 12:58:10;;;;;;;7.90;3.97;;;12.90;86.50;;;;;;5046112;28;20028;-74